PWSweather.com
Personal Weather Stations
Station Observations
MADWEATHER
MadeiraPT

MadeiraPT

Lat: 32.735, Lon: -17.194

Elevation: 1063

Station Type: Davis VantagePro2

Latest ConditionsUpdated 4:20:01 PM GMT Monday, May 30, 2016
Currently Today's Max Today's Min Today's Average
Temperature 64.3°F17.9°C 66.7°F19.3°C 56.0°F13.3°C 60.6°F15.9°C
Dew Point 56.6°F13.7°C 60.0°F15.6°C 48.5°F9.2°C 54.1°F12.3°C
Winds 4.6 mph S7.4 kmh S 6.7 mph S10.8 kmh S - 2.7 mph 4.3 kmh
Wind Gusts 7.0 mph11.3 kmh 11.0 mph17.7 kmh - -
Humidity 76% 85% 72% 79%
Pressure 30.16 in1021.3 mb 30.22 in1023.4 mb 30.16 in1021.3 mb -
Hour Temp Dew Point Humidity Winds Wind Gusts Pressure Precip Precip Rate Daily Precip Total
04:20 PM 64.3°F17.9°C 56.6°F13.7°C 76% 4.6 mph S7.4 kmh S 7.0 mph11.3 kmh 30.16 in1021.3 mb - 0.00 in0.0 mm 0.00 in0.0 mm
04:10 PM 64.9°F18.3°C 57.9°F14.4°C 78% 5.1 mph S8.2 kmh S 9.0 mph14.5 kmh 30.16 in1021.3 mb - 0.00 in0.0 mm 0.00 in0.0 mm
04:00 PM 64.7°F18.2°C 58.1°F14.5°C 79% 3.1 mph S5.0 kmh S 3.0 mph4.8 kmh 30.16 in1021.3 mb - 0.00 in0.0 mm 0.00 in0.0 mm
03:50 PM 65.6°F18.7°C 58.2°F14.6°C 77% 4.4 mph S7.1 kmh S 10.0 mph16.1 kmh 30.16 in1021.3 mb - 0.00 in0.0 mm 0.00 in0.0 mm
03:40 PM 64.4°F18.0°C 58.5°F14.7°C 81% 4.0 mph S6.4 kmh S 7.0 mph11.3 kmh 30.17 in1021.7 mb - 0.00 in0.0 mm 0.00 in0.0 mm
03:30 PM 64.1°F17.8°C 58.1°F14.5°C 81% 3.4 mph S5.5 kmh S 6.0 mph9.7 kmh 30.17 in1021.7 mb - 0.00 in0.0 mm 0.00 in0.0 mm
03:20 PM 64.0°F17.8°C 57.8°F14.3°C 80% 2.7 mph S4.3 kmh S 4.0 mph6.4 kmh 30.18 in1022.0 mb - 0.00 in0.0 mm 0.00 in0.0 mm
03:10 PM 65.2°F18.4°C 58.9°F14.9°C 80% 4.2 mph S6.8 kmh S 7.0 mph11.3 kmh 30.18 in1022.0 mb - 0.00 in0.0 mm 0.00 in0.0 mm
03:00 PM 64.4°F18.0°C 58.1°F14.5°C 80% 4.7 mph S7.6 kmh S 8.0 mph12.9 kmh 30.18 in1022.0 mb - 0.00 in0.0 mm 0.00 in0.0 mm
02:50 PM 63.3°F17.4°C 57.0°F13.9°C 80% 3.3 mph S5.3 kmh S 5.0 mph8.0 kmh 30.18 in1022.0 mb - 0.00 in0.0 mm 0.00 in0.0 mm
02:40 PM 64.1°F17.8°C 58.5°F14.7°C 82% 5.1 mph S8.2 kmh S 7.0 mph11.3 kmh 30.18 in1022.0 mb - 0.00 in0.0 mm 0.00 in0.0 mm
02:30 PM 63.9°F17.7°C 57.3°F14.1°C 79% 4.6 mph S7.4 kmh S 6.0 mph9.7 kmh 30.19 in1022.4 mb - 0.00 in0.0 mm 0.00 in0.0 mm
02:20 PM 64.3°F17.9°C 58.0°F14.4°C 80% 4.3 mph S6.9 kmh S 6.0 mph9.7 kmh 30.19 in1022.4 mb - 0.00 in0.0 mm 0.00 in0.0 mm
02:10 PM 64.9°F18.3°C 57.9°F14.4°C 78% 5.0 mph S8.0 kmh S 8.0 mph12.9 kmh 30.19 in1022.4 mb - 0.00 in0.0 mm 0.00 in0.0 mm
02:00 PM 66.7°F19.3°C 58.8°F14.9°C 76% 6.7 mph S10.8 kmh S 10.0 mph16.1 kmh 30.18 in1022.0 mb - 0.00 in0.0 mm 0.00 in0.0 mm
01:50 PM 66.4°F19.1°C 58.7°F14.8°C 76% 5.8 mph S9.3 kmh S 9.0 mph14.5 kmh 30.18 in1022.0 mb - 0.00 in0.0 mm 0.00 in0.0 mm
01:30 PM 66.0°F18.9°C 60.0°F15.6°C 81% 4.7 mph S7.6 kmh S 6.0 mph9.7 kmh 30.18 in1022.0 mb - 0.00 in0.0 mm 0.00 in0.0 mm
01:20 PM 64.2°F17.9°C 57.9°F14.4°C 80% 6.2 mph SSE10.0 kmh SSE 7.0 mph11.3 kmh 30.19 in1022.4 mb - 0.00 in0.0 mm 0.00 in0.0 mm
01:10 PM 64.1°F17.8°C 58.1°F14.5°C 81% 3.6 mph SSE5.8 kmh SSE 7.0 mph11.3 kmh 30.19 in1022.4 mb - 0.00 in0.0 mm 0.00 in0.0 mm
01:00 PM 64.7°F18.2°C 58.0°F14.4°C 79% 5.6 mph SSE9.0 kmh SSE 6.0 mph9.7 kmh 30.19 in1022.4 mb - 0.00 in0.0 mm 0.00 in0.0 mm
12:50 PM 64.2°F17.9°C 58.9°F14.9°C 83% 3.2 mph SSE5.1 kmh SSE 6.0 mph9.7 kmh 30.20 in1022.7 mb - 0.00 in0.0 mm 0.00 in0.0 mm
12:40 PM 64.6°F18.1°C 58.6°F14.8°C 81% 5.3 mph SSE8.5 kmh SSE 10.0 mph16.1 kmh 30.19 in1022.4 mb - 0.00 in0.0 mm 0.00 in0.0 mm
12:30 PM 63.5°F17.5°C 58.6°F14.8°C 84% 4.9 mph SSE7.9 kmh SSE 6.0 mph9.7 kmh 30.19 in1022.4 mb - 0.00 in0.0 mm 0.00 in0.0 mm
12:20 PM 64.0°F17.8°C 59.4°F15.2°C 85% 4.2 mph SSE6.8 kmh SSE 9.0 mph14.5 kmh 30.19 in1022.4 mb - 0.00 in0.0 mm 0.00 in0.0 mm
12:10 PM 63.2°F17.3°C 58.2°F14.6°C 84% 3.7 mph SSE6.0 kmh SSE 9.0 mph14.5 kmh 30.19 in1022.4 mb - 0.00 in0.0 mm 0.00 in0.0 mm
12:00 PM 63.4°F17.4°C 58.5°F14.7°C 84% 6.5 mph SSE10.5 kmh SSE 11.0 mph17.7 kmh 30.19 in1022.4 mb - 0.00 in0.0 mm 0.00 in0.0 mm
11:50 AM 63.5°F17.5°C 58.6°F14.8°C 84% 4.3 mph SSE6.9 kmh SSE 11.0 mph17.7 kmh 30.19 in1022.4 mb - 0.00 in0.0 mm 0.00 in0.0 mm
11:40 AM 64.4°F18.0°C 58.8°F14.9°C 82% 4.9 mph SSE7.9 kmh SSE 10.0 mph16.1 kmh 30.19 in1022.4 mb - 0.00 in0.0 mm 0.00 in0.0 mm
11:30 AM 64.4°F18.0°C 57.3°F14.1°C 78% 5.4 mph S8.7 kmh S 7.0 mph11.3 kmh 30.19 in1022.4 mb - 0.00 in0.0 mm 0.00 in0.0 mm
11:20 AM 63.7°F17.6°C 58.1°F14.5°C 82% 4.4 mph S7.1 kmh S 6.0 mph9.7 kmh 30.19 in1022.4 mb - 0.00 in0.0 mm 0.00 in0.0 mm
11:10 AM 63.0°F17.2°C 57.8°F14.3°C 83% 3.8 mph S6.1 kmh S 7.0 mph11.3 kmh 30.20 in1022.7 mb - 0.00 in0.0 mm 0.00 in0.0 mm
11:00 AM 62.9°F17.2°C 57.3°F14.1°C 82% 2.3 mph S3.7 kmh S 9.0 mph14.5 kmh 30.20 in1022.7 mb - 0.00 in0.0 mm 0.00 in0.0 mm
10:50 AM 62.6°F17.0°C 57.1°F13.9°C 82% 4.8 mph S7.7 kmh S 9.0 mph14.5 kmh 30.20 in1022.7 mb - 0.00 in0.0 mm 0.00 in0.0 mm
10:40 AM 63.5°F17.5°C 56.9°F13.8°C 79% 4.8 mph S7.7 kmh S 7.0 mph11.3 kmh 30.20 in1022.7 mb - 0.00 in0.0 mm 0.00 in0.0 mm
10:30 AM 63.2°F17.3°C 56.6°F13.7°C 79% 2.2 mph S3.5 kmh S 4.0 mph6.4 kmh 30.20 in1022.7 mb - 0.00 in0.0 mm 0.00 in0.0 mm
10:20 AM 63.2°F17.3°C 56.6°F13.7°C 79% 3.2 mph S5.1 kmh S 6.0 mph9.7 kmh 30.20 in1022.7 mb - 0.00 in0.0 mm 0.00 in0.0 mm
10:10 AM 62.8°F17.1°C 56.2°F13.4°C 79% 4.7 mph S7.6 kmh S 6.0 mph9.7 kmh 30.20 in1022.7 mb - 0.00 in0.0 mm 0.00 in0.0 mm
10:00 AM 63.4°F17.4°C 57.2°F14.0°C 80% 2.2 mph S3.5 kmh S 6.0 mph9.7 kmh 30.20 in1022.7 mb - 0.00 in0.0 mm 0.00 in0.0 mm
09:50 AM 63.3°F17.4°C 56.7°F13.7°C 79% 5.1 mph S8.2 kmh S 8.0 mph12.9 kmh 30.20 in1022.7 mb - 0.00 in0.0 mm 0.00 in0.0 mm
09:40 AM 63.6°F17.6°C 56.2°F13.4°C 77% 4.8 mph S7.7 kmh S 6.0 mph9.7 kmh 30.20 in1022.7 mb - 0.00 in0.0 mm 0.00 in0.0 mm
09:30 AM 63.5°F17.5°C 55.0°F12.8°C 74% 4.1 mph S6.6 kmh S 6.0 mph9.7 kmh 30.20 in1022.7 mb - 0.00 in0.0 mm 0.00 in0.0 mm
09:20 AM 63.1°F17.3°C 54.3°F12.4°C 73% 3.4 mph WSW5.5 kmh WSW 7.0 mph11.3 kmh 30.20 in1022.7 mb - 0.00 in0.0 mm 0.00 in0.0 mm
09:10 AM 62.9°F17.2°C 54.5°F12.5°C 74% 2.4 mph WNW3.9 kmh WNW 7.0 mph11.3 kmh 30.20 in1022.7 mb - 0.00 in0.0 mm 0.00 in0.0 mm
09:00 AM 62.7°F17.1°C 53.5°F11.9°C 72% 3.1 mph WNW5.0 kmh WNW 4.0 mph6.4 kmh 30.20 in1022.7 mb - 0.00 in0.0 mm 0.00 in0.0 mm
08:50 AM 62.3°F16.8°C 53.5°F11.9°C 73% 2.0 mph WNW3.2 kmh WNW 5.0 mph8.0 kmh 30.20 in1022.7 mb - 0.00 in0.0 mm 0.00 in0.0 mm
08:40 AM 62.4°F16.9°C 54.4°F12.4°C 75% 3.1 mph WNW5.0 kmh WNW 4.0 mph6.4 kmh 30.20 in1022.7 mb - 0.00 in0.0 mm 0.00 in0.0 mm
08:30 AM 61.8°F16.6°C 54.1°F12.3°C 76% Calm Calm -- 30.19 in1022.4 mb - 0.00 in0.0 mm 0.00 in0.0 mm
08:20 AM 61.5°F16.4°C 53.5°F11.9°C 75% 1.4 mph WNW2.3 kmh WNW 3.0 mph4.8 kmh 30.19 in1022.4 mb - 0.00 in0.0 mm 0.00 in0.0 mm
08:10 AM 60.8°F16.0°C 54.2°F12.3°C 79% 2.2 mph WNW3.5 kmh WNW 4.0 mph6.4 kmh 30.19 in1022.4 mb - 0.00 in0.0 mm 0.00 in0.0 mm
08:00 AM 60.6°F15.9°C 55.4°F13.0°C 83% 0.1 mph WNW0.2 kmh WNW -- 30.19 in1022.4 mb - 0.00 in0.0 mm 0.00 in0.0 mm
07:50 AM 60.4°F15.8°C 54.2°F12.3°C 80% 1.1 mph WNW1.8 kmh WNW 4.0 mph6.4 kmh 30.18 in1022.0 mb - 0.00 in0.0 mm 0.00 in0.0 mm
07:40 AM 60.0°F15.6°C 53.5°F11.9°C 79% Calm Calm -- 30.18 in1022.0 mb - 0.00 in0.0 mm 0.00 in0.0 mm
07:30 AM 59.8°F15.4°C 52.6°F11.4°C 77% 2.3 mph WNW3.7 kmh WNW 3.0 mph4.8 kmh 30.18 in1022.0 mb - 0.00 in0.0 mm 0.00 in0.0 mm
07:20 AM 59.5°F15.3°C 53.0°F11.7°C 79% Calm Calm -- 30.18 in1022.0 mb - 0.00 in0.0 mm 0.00 in0.0 mm
07:10 AM 58.7°F14.8°C 53.3°F11.8°C 82% Calm Calm -- 30.18 in1022.0 mb - 0.00 in0.0 mm 0.00 in0.0 mm
07:00 AM 57.7°F14.3°C 50.6°F10.3°C 77% 0.8 mph WNW1.3 kmh WNW 1.0 mph1.6 kmh 30.18 in1022.0 mb - 0.00 in0.0 mm 0.00 in0.0 mm
06:50 AM 57.5°F14.2°C 49.6°F9.8°C 75% 1.2 mph WNW1.9 kmh WNW 3.0 mph4.8 kmh 30.18 in1022.0 mb - 0.00 in0.0 mm 0.00 in0.0 mm
06:40 AM 56.8°F13.8°C 50.3°F10.2°C 79% Calm Calm 1.0 mph1.6 kmh 30.17 in1021.7 mb - 0.00 in0.0 mm 0.00 in0.0 mm
06:30 AM 56.9°F13.8°C 50.4°F10.2°C 79% Calm Calm 1.0 mph1.6 kmh 30.17 in1021.7 mb - 0.00 in0.0 mm 0.00 in0.0 mm
06:20 AM 56.5°F13.6°C 50.1°F10.1°C 79% Calm Calm -- 30.17 in1021.7 mb - 0.00 in0.0 mm 0.00 in0.0 mm
06:10 AM 56.2°F13.4°C 49.8°F9.9°C 79% 0.4 mph WNW0.6 kmh WNW 1.0 mph1.6 kmh 30.17 in1021.7 mb - 0.00 in0.0 mm 0.00 in0.0 mm
06:00 AM 56.7°F13.7°C 50.6°F10.3°C 80% 0.5 mph WNW0.8 kmh WNW 2.0 mph3.2 kmh 30.17 in1021.7 mb - 0.00 in0.0 mm 0.00 in0.0 mm
05:50 AM 56.6°F13.7°C 50.8°F10.4°C 81% 1.6 mph WNW2.6 kmh WNW 2.0 mph3.2 kmh 30.17 in1021.7 mb - 0.00 in0.0 mm 0.00 in0.0 mm
05:40 AM 56.3°F13.5°C 51.2°F10.7°C 83% 2.4 mph WNW3.9 kmh WNW 3.0 mph4.8 kmh 30.17 in1021.7 mb - 0.00 in0.0 mm 0.00 in0.0 mm
05:30 AM 56.0°F13.3°C 51.2°F10.7°C 84% 1.5 mph WNW2.4 kmh WNW 3.0 mph4.8 kmh 30.17 in1021.7 mb - 0.00 in0.0 mm 0.00 in0.0 mm
05:20 AM 56.1°F13.4°C 51.7°F10.9°C 85% 1.5 mph WNW2.4 kmh WNW 4.0 mph6.4 kmh 30.16 in1021.3 mb - 0.00 in0.0 mm 0.00 in0.0 mm
05:10 AM 56.6°F13.7°C 52.1°F11.2°C 85% 1.3 mph WNW2.1 kmh WNW 2.0 mph3.2 kmh 30.17 in1021.7 mb - 0.00 in0.0 mm 0.00 in0.0 mm
05:00 AM 56.7°F13.7°C 51.3°F10.7°C 82% 1.8 mph WNW2.9 kmh WNW 3.0 mph4.8 kmh 30.16 in1021.3 mb - 0.00 in0.0 mm 0.00 in0.0 mm
04:50 AM 56.9°F13.8°C 51.1°F10.6°C 81% 1.8 mph WNW2.9 kmh WNW 2.0 mph3.2 kmh 30.16 in1021.3 mb - 0.00 in0.0 mm 0.00 in0.0 mm
04:40 AM 57.3°F14.1°C 51.9°F11.1°C 82% Calm Calm -- 30.17 in1021.7 mb - 0.00 in0.0 mm 0.00 in0.0 mm
04:30 AM 57.5°F14.2°C 51.4°F10.8°C 80% Calm Calm -- 30.17 in1021.7 mb - 0.00 in0.0 mm 0.00 in0.0 mm
04:20 AM 57.7°F14.3°C 49.8°F9.9°C 75% Calm Calm -- 30.16 in1021.3 mb - 0.00 in0.0 mm 0.00 in0.0 mm
04:10 AM 57.7°F14.3°C 49.8°F9.9°C 75% Calm Calm -- 30.17 in1021.7 mb - 0.00 in0.0 mm 0.00 in0.0 mm
04:00 AM 57.2°F14.0°C 50.1°F10.1°C 77% Calm Calm -- 30.16 in1021.3 mb - 0.00 in0.0 mm 0.00 in0.0 mm
03:50 AM 56.7°F13.7°C 50.9°F10.5°C 81% 1.8 mph WNW2.9 kmh WNW 2.0 mph3.2 kmh 30.16 in1021.3 mb - 0.00 in0.0 mm 0.00 in0.0 mm
03:40 AM 56.6°F13.7°C 51.9°F11.1°C 84% 2.0 mph WNW3.2 kmh WNW 3.0 mph4.8 kmh 30.17 in1021.7 mb - 0.00 in0.0 mm 0.00 in0.0 mm
03:30 AM 56.6°F13.7°C 51.2°F10.7°C 82% 2.7 mph WNW4.3 kmh WNW 3.0 mph4.8 kmh 30.17 in1021.7 mb - 0.00 in0.0 mm 0.00 in0.0 mm
03:20 AM 57.0°F13.9°C 51.2°F10.7°C 81% 0.6 mph WNW1.0 kmh WNW 1.0 mph1.6 kmh 30.17 in1021.7 mb - 0.00 in0.0 mm 0.00 in0.0 mm
03:10 AM 57.2°F14.0°C 51.4°F10.8°C 81% 2.6 mph WNW4.2 kmh WNW 4.0 mph6.4 kmh 30.17 in1021.7 mb - 0.00 in0.0 mm 0.00 in0.0 mm
03:00 AM 57.0°F13.9°C 50.9°F10.5°C 80% 2.5 mph WNW4.0 kmh WNW 3.0 mph4.8 kmh 30.17 in1021.7 mb - 0.00 in0.0 mm 0.00 in0.0 mm
02:50 AM 57.0°F13.9°C 50.6°F10.3°C 79% 2.7 mph WNW4.3 kmh WNW 3.0 mph4.8 kmh 30.18 in1022.0 mb - 0.00 in0.0 mm 0.00 in0.0 mm
02:40 AM 56.9°F13.8°C 50.1°F10.1°C 78% 0.9 mph WNW1.4 kmh WNW 1.0 mph1.6 kmh 30.18 in1022.0 mb - 0.00 in0.0 mm 0.00 in0.0 mm
02:30 AM 57.1°F13.9°C 49.6°F9.8°C 76% Calm Calm -- 30.18 in1022.0 mb - 0.00 in0.0 mm 0.00 in0.0 mm
02:20 AM 57.4°F14.1°C 49.2°F9.6°C 74% Calm Calm -- 30.18 in1022.0 mb - 0.00 in0.0 mm 0.00 in0.0 mm
02:10 AM 58.0°F14.4°C 49.4°F9.7°C 73% Calm Calm -- 30.18 in1022.0 mb - 0.00 in0.0 mm 0.00 in0.0 mm
02:00 AM 57.4°F14.1°C 48.5°F9.2°C 72% Calm Calm -- 30.18 in1022.0 mb - 0.00 in0.0 mm 0.00 in0.0 mm
01:50 AM 57.5°F14.2°C 48.5°F9.2°C 72% 2.8 mph WNW4.5 kmh WNW 4.0 mph6.4 kmh 30.18 in1022.0 mb - 0.00 in0.0 mm 0.00 in0.0 mm
01:40 AM 57.4°F14.1°C 49.5°F9.7°C 75% 1.9 mph WNW3.1 kmh WNW 3.0 mph4.8 kmh 30.19 in1022.4 mb - 0.00 in0.0 mm 0.00 in0.0 mm
01:30 AM 57.2°F14.0°C 49.7°F9.8°C 76% 1.3 mph WNW2.1 kmh WNW 3.0 mph4.8 kmh 30.19 in1022.4 mb - 0.00 in0.0 mm 0.00 in0.0 mm
01:20 AM 57.2°F14.0°C 51.1°F10.6°C 80% 3.6 mph WNW5.8 kmh WNW 4.0 mph6.4 kmh 30.20 in1022.7 mb - 0.00 in0.0 mm 0.00 in0.0 mm
01:10 AM 57.3°F14.1°C 52.8°F11.6°C 85% 3.2 mph WNW5.1 kmh WNW 4.0 mph6.4 kmh 30.20 in1022.7 mb - 0.00 in0.0 mm 0.00 in0.0 mm
01:00 AM 57.2°F14.0°C 52.4°F11.3°C 84% 3.7 mph WNW6.0 kmh WNW 5.0 mph8.0 kmh 30.20 in1022.7 mb - 0.00 in0.0 mm 0.00 in0.0 mm
12:50 AM 57.5°F14.2°C 52.4°F11.3°C 83% 3.2 mph WNW5.1 kmh WNW 4.0 mph6.4 kmh 30.20 in1022.7 mb - 0.00 in0.0 mm 0.00 in0.0 mm
12:40 AM 57.5°F14.2°C 51.4°F10.8°C 80% 2.9 mph WNW4.7 kmh WNW 4.0 mph6.4 kmh 30.21 in1023.0 mb - 0.00 in0.0 mm 0.00 in0.0 mm
12:30 AM 57.3°F14.1°C 49.4°F9.7°C 75% 3.4 mph WNW5.5 kmh WNW 5.0 mph8.0 kmh 30.21 in1023.0 mb - 0.00 in0.0 mm 0.00 in0.0 mm
12:20 AM 57.3°F14.1°C 49.1°F9.5°C 74% 3.1 mph WNW5.0 kmh WNW 4.0 mph6.4 kmh 30.21 in1023.0 mb - 0.00 in0.0 mm 0.00 in0.0 mm
12:10 AM 57.7°F14.3°C 50.2°F10.1°C 76% 3.0 mph WNW4.8 kmh WNW 4.0 mph6.4 kmh 30.22 in1023.4 mb - 0.00 in0.0 mm 0.00 in0.0 mm
12:00 AM 58.0°F14.4°C 50.1°F10.1°C 75% 2.9 mph WNW4.7 kmh WNW 4.0 mph6.4 kmh 30.22 in1023.4 mb - 0.00 in0.0 mm 0.00 in0.0 mm